sensor_id;sensor_type;location;lat;lon;timestamp;P1;durP1;ratioP1;P2;durP2;ratioP2
19519;SDS011;9904;52.246;20.898;2022-10-16T00:01:53;20.17;;;11.23;;
19519;SDS011;9904;52.246;20.898;2022-10-16T00:04:19;20.63;;;10.83;;
19519;SDS011;9904;52.246;20.898;2022-10-16T00:06:46;18.90;;;10.60;;
19519;SDS011;9904;52.246;20.898;2022-10-16T00:09:12;18.77;;;10.37;;
19519;SDS011;9904;52.246;20.898;2022-10-16T00:11:39;21.97;;;9.53;;
19519;SDS011;9904;52.246;20.898;2022-10-16T00:14:08;18.77;;;9.63;;
19519;SDS011;9904;52.246;20.898;2022-10-16T00:16:37;19.33;;;10.27;;
19519;SDS011;9904;52.246;20.898;2022-10-16T00:19:04;18.33;;;8.77;;
19519;SDS011;9904;52.246;20.898;2022-10-16T00:21:31;20.03;;;9.93;;
19519;SDS011;9904;52.246;20.898;2022-10-16T00:24:00;17.90;;;9.10;;
19519;SDS011;9904;52.246;20.898;2022-10-16T00:26:28;18.60;;;9.57;;
19519;SDS011;9904;52.246;20.898;2022-10-16T00:28:56;13.17;;;8.73;;
19519;SDS011;9904;52.246;20.898;2022-10-16T00:31:23;18.07;;;8.67;;
19519;SDS011;9904;52.246;20.898;2022-10-16T00:33:49;19.97;;;9.13;;
19519;SDS011;9904;52.246;20.898;2022-10-16T00:36:17;16.40;;;9.13;;
19519;SDS011;9904;52.246;20.898;2022-10-16T00:38:45;17.03;;;8.40;;
19519;SDS011;9904;52.246;20.898;2022-10-16T00:41:14;12.50;;;8.37;;
19519;SDS011;9904;52.246;20.898;2022-10-16T00:43:46;18.93;;;9.10;;
19519;SDS011;9904;52.246;20.898;2022-10-16T00:48:45;14.90;;;8.00;;
19519;SDS011;9904;52.246;20.898;2022-10-16T00:51:35;15.73;;;8.30;;
19519;SDS011;9904;52.246;20.898;2022-10-16T00:54:03;19.27;;;9.97;;
19519;SDS011;9904;52.246;20.898;2022-10-16T00:56:32;19.27;;;8.90;;
19519;SDS011;9904;52.246;20.898;2022-10-16T00:58:59;18.63;;;9.83;;
19519;SDS011;9904;52.246;20.898;2022-10-16T01:01:29;19.90;;;9.50;;
19519;SDS011;9904;52.246;20.898;2022-10-16T01:03:56;18.87;;;10.50;;
19519;SDS011;9904;52.246;20.898;2022-10-16T01:06:23;22.77;;;9.77;;
19519;SDS011;9904;52.246;20.898;2022-10-16T01:09:04;18.50;;;10.17;;
19519;SDS011;9904;52.246;20.898;2022-10-16T01:14:06;17.40;;;10.33;;
19519;SDS011;9904;52.246;20.898;2022-10-16T01:16:43;16.60;;;9.73;;
19519;SDS011;9904;52.246;20.898;2022-10-16T01:22:25;19.27;;;10.90;;
19519;SDS011;9904;52.246;20.898;2022-10-16T01:24:59;20.90;;;10.60;;
19519;SDS011;9904;52.246;20.898;2022-10-16T01:27:27;20.90;;;10.90;;
19519;SDS011;9904;52.246;20.898;2022-10-16T01:29:59;21.97;;;11.60;;
19519;SDS011;9904;52.246;20.898;2022-10-16T01:32:36;24.37;;;11.20;;
19519;SDS011;9904;52.246;20.898;2022-10-16T01:35:07;23.97;;;11.03;;
19519;SDS011;9904;52.246;20.898;2022-10-16T01:37:42;25.27;;;11.50;;
19519;SDS011;9904;52.246;20.898;2022-10-16T01:40:12;20.37;;;11.73;;
19519;SDS011;9904;52.246;20.898;2022-10-16T01:42:42;21.50;;;11.63;;
19519;SDS011;9904;52.246;20.898;2022-10-16T01:45:13;20.33;;;12.07;;
19519;SDS011;9904;52.246;20.898;2022-10-16T01:47:41;22.90;;;12.20;;
19519;SDS011;9904;52.246;20.898;2022-10-16T01:50:09;22.83;;;12.27;;
19519;SDS011;9904;52.246;20.898;2022-10-16T01:52:39;23.37;;;12.57;;
19519;SDS011;9904;52.246;20.898;2022-10-16T01:55:07;18.47;;;11.77;;
19519;SDS011;9904;52.246;20.898;2022-10-16T01:57:35;22.57;;;12.07;;
19519;SDS011;9904;52.246;20.898;2022-10-16T02:00:05;22.10;;;12.17;;
19519;SDS011;9904;52.246;20.898;2022-10-16T02:02:34;21.93;;;12.13;;
19519;SDS011;9904;52.246;20.898;2022-10-16T02:05:15;27.30;;;12.13;;
19519;SDS011;9904;52.246;20.898;2022-10-16T02:07:47;23.63;;;11.23;;
19519;SDS011;9904;52.246;20.898;2022-10-16T02:10:15;23.07;;;12.37;;
19519;SDS011;9904;52.246;20.898;2022-10-16T02:12:43;25.07;;;13.50;;
19519;SDS011;9904;52.246;20.898;2022-10-16T02:15:12;25.20;;;13.40;;
19519;SDS011;9904;52.246;20.898;2022-10-16T02:17:38;23.13;;;13.33;;
19519;SDS011;9904;52.246;20.898;2022-10-16T02:20:05;24.70;;;13.30;;
19519;SDS011;9904;52.246;20.898;2022-10-16T02:22:33;24.50;;;13.37;;
19519;SDS011;9904;52.246;20.898;2022-10-16T02:27:47;26.93;;;13.33;;
19519;SDS011;9904;52.246;20.898;2022-10-16T02:30:37;26.53;;;13.60;;
19519;SDS011;9904;52.246;20.898;2022-10-16T02:33:07;27.13;;;13.87;;
19519;SDS011;9904;52.246;20.898;2022-10-16T02:35:35;23.37;;;13.17;;
19519;SDS011;9904;52.246;20.898;2022-10-16T02:38:02;25.57;;;13.37;;
19519;SDS011;9904;52.246;20.898;2022-10-16T02:40:29;27.43;;;13.73;;
19519;SDS011;9904;52.246;20.898;2022-10-16T02:42:57;22.33;;;12.77;;
19519;SDS011;9904;52.246;20.898;2022-10-16T02:45:23;26.43;;;14.37;;
19519;SDS011;9904;52.246;20.898;2022-10-16T02:47:50;29.17;;;13.80;;
19519;SDS011;9904;52.246;20.898;2022-10-16T02:50:16;27.93;;;14.33;;
19519;SDS011;9904;52.246;20.898;2022-10-16T02:52:43;29.57;;;13.97;;
19519;SDS011;9904;52.246;20.898;2022-10-16T02:55:10;26.90;;;14.23;;
19519;SDS011;9904;52.246;20.898;2022-10-16T02:57:36;28.77;;;13.93;;
19519;SDS011;9904;52.246;20.898;2022-10-16T03:00:04;29.57;;;14.57;;
19519;SDS011;9904;52.246;20.898;2022-10-16T03:02:31;27.57;;;13.80;;
19519;SDS011;9904;52.246;20.898;2022-10-16T03:04:57;28.00;;;14.47;;
19519;SDS011;9904;52.246;20.898;2022-10-16T03:07:24;32.07;;;15.17;;
19519;SDS011;9904;52.246;20.898;2022-10-16T03:09:50;30.20;;;14.50;;
19519;SDS011;9904;52.246;20.898;2022-10-16T03:12:17;23.87;;;13.83;;
19519;SDS011;9904;52.246;20.898;2022-10-16T03:14:43;31.30;;;14.57;;
19519;SDS011;9904;52.246;20.898;2022-10-16T03:17:10;30.03;;;14.47;;
19519;SDS011;9904;52.246;20.898;2022-10-16T03:19:36;30.03;;;14.57;;
19519;SDS011;9904;52.246;20.898;2022-10-16T03:22:03;34.97;;;14.83;;
19519;SDS011;9904;52.246;20.898;2022-10-16T03:24:29;29.43;;;14.40;;
19519;SDS011;9904;52.246;20.898;2022-10-16T03:26:57;28.87;;;15.00;;
19519;SDS011;9904;52.246;20.898;2022-10-16T03:29:23;32.93;;;15.30;;
19519;SDS011;9904;52.246;20.898;2022-10-16T03:31:51;30.00;;;14.80;;
19519;SDS011;9904;52.246;20.898;2022-10-16T03:34:18;25.37;;;14.33;;
19519;SDS011;9904;52.246;20.898;2022-10-16T03:36:44;26.57;;;14.57;;
19519;SDS011;9904;52.246;20.898;2022-10-16T03:39:11;24.57;;;14.40;;
19519;SDS011;9904;52.246;20.898;2022-10-16T03:41:37;29.93;;;14.83;;
19519;SDS011;9904;52.246;20.898;2022-10-16T03:44:04;27.80;;;14.70;;
19519;SDS011;9904;52.246;20.898;2022-10-16T03:46:31;32.70;;;14.90;;
19519;SDS011;9904;52.246;20.898;2022-10-16T03:48:57;29.10;;;13.90;;
19519;SDS011;9904;52.246;20.898;2022-10-16T03:51:24;25.17;;;13.50;;
19519;SDS011;9904;52.246;20.898;2022-10-16T03:53:50;30.83;;;14.63;;
19519;SDS011;9904;52.246;20.898;2022-10-16T03:56:16;25.40;;;14.03;;
19519;SDS011;9904;52.246;20.898;2022-10-16T03:58:43;26.83;;;14.13;;
19519;SDS011;9904;52.246;20.898;2022-10-16T04:01:09;28.60;;;14.90;;
19519;SDS011;9904;52.246;20.898;2022-10-16T04:03:36;28.83;;;14.20;;
19519;SDS011;9904;52.246;20.898;2022-10-16T04:06:02;26.87;;;14.03;;
19519;SDS011;9904;52.246;20.898;2022-10-16T04:08:29;29.63;;;14.63;;
19519;SDS011;9904;52.246;20.898;2022-10-16T04:10:56;28.30;;;14.57;;
19519;SDS011;9904;52.246;20.898;2022-10-16T04:13:22;28.17;;;13.83;;
19519;SDS011;9904;52.246;20.898;2022-10-16T04:15:49;25.23;;;13.80;;
19519;SDS011;9904;52.246;20.898;2022-10-16T04:18:15;26.60;;;14.43;;
19519;SDS011;9904;52.246;20.898;2022-10-16T04:20:42;32.77;;;14.27;;
19519;SDS011;9904;52.246;20.898;2022-10-16T04:23:08;25.30;;;14.00;;
19519;SDS011;9904;52.246;20.898;2022-10-16T04:25:35;25.63;;;14.07;;
19519;SDS011;9904;52.246;20.898;2022-10-16T04:28:01;27.60;;;13.77;;
19519;SDS011;9904;52.246;20.898;2022-10-16T04:30:28;24.63;;;14.50;;
19519;SDS011;9904;52.246;20.898;2022-10-16T04:32:54;28.43;;;15.63;;
19519;SDS011;9904;52.246;20.898;2022-10-16T04:35:21;26.33;;;13.80;;
19519;SDS011;9904;52.246;20.898;2022-10-16T04:37:48;25.70;;;14.37;;
19519;SDS011;9904;52.246;20.898;2022-10-16T04:40:15;24.50;;;13.83;;
19519;SDS011;9904;52.246;20.898;2022-10-16T04:42:41;27.50;;;14.47;;
19519;SDS011;9904;52.246;20.898;2022-10-16T04:45:08;27.30;;;13.87;;
19519;SDS011;9904;52.246;20.898;2022-10-16T04:47:40;24.27;;;14.03;;
19519;SDS011;9904;52.246;20.898;2022-10-16T04:50:06;25.23;;;14.07;;
19519;SDS011;9904;52.246;20.898;2022-10-16T04:52:33;28.30;;;13.97;;
19519;SDS011;9904;52.246;20.898;2022-10-16T04:55:05;23.60;;;14.03;;
19519;SDS011;9904;52.246;20.898;2022-10-16T04:57:31;27.60;;;14.60;;
19519;SDS011;9904;52.246;20.898;2022-10-16T04:59:59;27.13;;;14.70;;
19519;SDS011;9904;52.246;20.898;2022-10-16T05:02:26;24.67;;;14.73;;
19519;SDS011;9904;52.246;20.898;2022-10-16T05:04:52;28.57;;;14.60;;
19519;SDS011;9904;52.246;20.898;2022-10-16T05:07:19;28.23;;;14.87;;
19519;SDS011;9904;52.246;20.898;2022-10-16T05:09:46;29.40;;;14.97;;
19519;SDS011;9904;52.246;20.898;2022-10-16T05:12:12;27.67;;;14.60;;
19519;SDS011;9904;52.246;20.898;2022-10-16T05:14:39;26.63;;;13.87;;
19519;SDS011;9904;52.246;20.898;2022-10-16T05:17:05;26.10;;;14.30;;
19519;SDS011;9904;52.246;20.898;2022-10-16T05:19:32;31.60;;;14.40;;
19519;SDS011;9904;52.246;20.898;2022-10-16T05:21:59;30.57;;;15.40;;
19519;SDS011;9904;52.246;20.898;2022-10-16T05:24:25;27.97;;;15.90;;
19519;SDS011;9904;52.246;20.898;2022-10-16T05:26:52;23.70;;;14.37;;
19519;SDS011;9904;52.246;20.898;2022-10-16T05:29:19;26.97;;;15.10;;
19519;SDS011;9904;52.246;20.898;2022-10-16T05:31:46;30.47;;;15.67;;
19519;SDS011;9904;52.246;20.898;2022-10-16T05:34:16;25.10;;;15.07;;
19519;SDS011;9904;52.246;20.898;2022-10-16T05:36:43;28.73;;;14.57;;
19519;SDS011;9904;52.246;20.898;2022-10-16T05:39:11;26.10;;;14.37;;
19519;SDS011;9904;52.246;20.898;2022-10-16T05:41:38;27.43;;;14.03;;
19519;SDS011;9904;52.246;20.898;2022-10-16T05:44:04;30.27;;;15.50;;
19519;SDS011;9904;52.246;20.898;2022-10-16T05:46:32;30.53;;;15.37;;
19519;SDS011;9904;52.246;20.898;2022-10-16T05:48:59;35.77;;;14.53;;
19519;SDS011;9904;52.246;20.898;2022-10-16T05:51:26;25.47;;;15.20;;
19519;SDS011;9904;52.246;20.898;2022-10-16T05:53:52;27.33;;;15.60;;
19519;SDS011;9904;52.246;20.898;2022-10-16T05:56:19;30.83;;;14.80;;
19519;SDS011;9904;52.246;20.898;2022-10-16T05:58:45;27.93;;;15.13;;
19519;SDS011;9904;52.246;20.898;2022-10-16T06:01:16;30.60;;;15.77;;
19519;SDS011;9904;52.246;20.898;2022-10-16T06:03:44;25.90;;;14.50;;
19519;SDS011;9904;52.246;20.898;2022-10-16T06:06:11;27.57;;;14.13;;
19519;SDS011;9904;52.246;20.898;2022-10-16T06:08:40;29.50;;;14.93;;
19519;SDS011;9904;52.246;20.898;2022-10-16T06:11:10;28.00;;;15.40;;
19519;SDS011;9904;52.246;20.898;2022-10-16T06:13:38;28.70;;;14.37;;
19519;SDS011;9904;52.246;20.898;2022-10-16T06:16:07;30.70;;;14.83;;
19519;SDS011;9904;52.246;20.898;2022-10-16T06:18:34;25.60;;;14.23;;
19519;SDS011;9904;52.246;20.898;2022-10-16T06:21:06;25.27;;;14.13;;
19519;SDS011;9904;52.246;20.898;2022-10-16T06:23:34;26.30;;;14.50;;
19519;SDS011;9904;52.246;20.898;2022-10-16T06:26:04;24.63;;;13.93;;
19519;SDS011;9904;52.246;20.898;2022-10-16T06:28:34;25.33;;;14.40;;
19519;SDS011;9904;52.246;20.898;2022-10-16T06:31:02;27.10;;;14.33;;
19519;SDS011;9904;52.246;20.898;2022-10-16T06:33:33;28.93;;;14.23;;
19519;SDS011;9904;52.246;20.898;2022-10-16T06:36:01;25.43;;;14.13;;
19519;SDS011;9904;52.246;20.898;2022-10-16T06:38:31;25.87;;;13.73;;
19519;SDS011;9904;52.246;20.898;2022-10-16T06:40:58;22.97;;;13.43;;
19519;SDS011;9904;52.246;20.898;2022-10-16T06:43:25;25.17;;;13.33;;
19519;SDS011;9904;52.246;20.898;2022-10-16T06:45:52;26.53;;;13.70;;
19519;SDS011;9904;52.246;20.898;2022-10-16T06:48:20;24.03;;;13.40;;
19519;SDS011;9904;52.246;20.898;2022-10-16T06:51:03;27.17;;;13.93;;
19519;SDS011;9904;52.246;20.898;2022-10-16T06:53:32;26.83;;;13.90;;
19519;SDS011;9904;52.246;20.898;2022-10-16T06:58:51;25.93;;;12.80;;
19519;SDS011;9904;52.246;20.898;2022-10-16T07:01:19;24.30;;;12.70;;
19519;SDS011;9904;52.246;20.898;2022-10-16T07:03:47;21.13;;;11.57;;
19519;SDS011;9904;52.246;20.898;2022-10-16T07:06:15;28.20;;;13.60;;
19519;SDS011;9904;52.246;20.898;2022-10-16T07:08:44;21.47;;;12.77;;
19519;SDS011;9904;52.246;20.898;2022-10-16T07:11:12;23.13;;;12.90;;
19519;SDS011;9904;52.246;20.898;2022-10-16T07:13:43;28.20;;;13.30;;
19519;SDS011;9904;52.246;20.898;2022-10-16T07:16:18;23.73;;;12.50;;
19519;SDS011;9904;52.246;20.898;2022-10-16T07:18:46;24.97;;;12.80;;
19519;SDS011;9904;52.246;20.898;2022-10-16T07:21:18;22.63;;;13.13;;
19519;SDS011;9904;52.246;20.898;2022-10-16T07:23:53;20.47;;;12.70;;
19519;SDS011;9904;52.246;20.898;2022-10-16T07:26:20;23.27;;;12.57;;
19519;SDS011;9904;52.246;20.898;2022-10-16T07:28:47;23.60;;;12.20;;
19519;SDS011;9904;52.246;20.898;2022-10-16T07:31:14;24.67;;;13.40;;
19519;SDS011;9904;52.246;20.898;2022-10-16T07:33:43;22.33;;;13.20;;
19519;SDS011;9904;52.246;20.898;2022-10-16T07:36:11;21.90;;;12.90;;
19519;SDS011;9904;52.246;20.898;2022-10-16T07:38:41;24.33;;;11.33;;
19519;SDS011;9904;52.246;20.898;2022-10-16T07:41:09;17.97;;;10.37;;
19519;SDS011;9904;52.246;20.898;2022-10-16T07:43:46;20.67;;;10.83;;
19519;SDS011;9904;52.246;20.898;2022-10-16T07:46:17;17.70;;;9.90;;
19519;SDS011;9904;52.246;20.898;2022-10-16T07:48:45;16.50;;;9.60;;
19519;SDS011;9904;52.246;20.898;2022-10-16T07:51:14;22.83;;;10.53;;
19519;SDS011;9904;52.246;20.898;2022-10-16T07:53:42;19.47;;;10.43;;
19519;SDS011;9904;52.246;20.898;2022-10-16T07:56:10;17.67;;;9.83;;
19519;SDS011;9904;52.246;20.898;2022-10-16T07:58:37;21.50;;;10.23;;
19519;SDS011;9904;52.246;20.898;2022-10-16T08:01:05;19.77;;;9.60;;
19519;SDS011;9904;52.246;20.898;2022-10-16T08:03:33;20.50;;;10.17;;
19519;SDS011;9904;52.246;20.898;2022-10-16T08:06:00;17.30;;;9.90;;
19519;SDS011;9904;52.246;20.898;2022-10-16T08:08:27;20.37;;;10.33;;
19519;SDS011;9904;52.246;20.898;2022-10-16T08:10:54;20.33;;;10.27;;
19519;SDS011;9904;52.246;20.898;2022-10-16T08:13:21;17.90;;;10.77;;
19519;SDS011;9904;52.246;20.898;2022-10-16T08:15:48;18.30;;;9.20;;
19519;SDS011;9904;52.246;20.898;2022-10-16T08:18:15;16.83;;;9.50;;
19519;SDS011;9904;52.246;20.898;2022-10-16T08:20:42;23.33;;;10.47;;
19519;SDS011;9904;52.246;20.898;2022-10-16T08:23:09;17.97;;;9.73;;
19519;SDS011;9904;52.246;20.898;2022-10-16T08:25:37;24.13;;;10.47;;
19519;SDS011;9904;52.246;20.898;2022-10-16T08:28:04;17.77;;;9.73;;
19519;SDS011;9904;52.246;20.898;2022-10-16T08:30:32;17.23;;;9.73;;
19519;SDS011;9904;52.246;20.898;2022-10-16T08:32:59;19.47;;;9.43;;
19519;SDS011;9904;52.246;20.898;2022-10-16T08:35:26;20.13;;;10.40;;
19519;SDS011;9904;52.246;20.898;2022-10-16T08:37:52;15.47;;;9.53;;
19519;SDS011;9904;52.246;20.898;2022-10-16T08:40:20;17.27;;;10.17;;
19519;SDS011;9904;52.246;20.898;2022-10-16T08:43:00;16.90;;;9.30;;
19519;SDS011;9904;52.246;20.898;2022-10-16T08:51:24;17.77;;;10.17;;
19519;SDS011;9904;52.246;20.898;2022-10-16T08:53:56;17.20;;;10.20;;
19519;SDS011;9904;52.246;20.898;2022-10-16T08:56:25;21.83;;;10.37;;
19519;SDS011;9904;52.246;20.898;2022-10-16T08:58:52;19.10;;;9.60;;
19519;SDS011;9904;52.246;20.898;2022-10-16T09:01:35;17.53;;;9.30;;
19519;SDS011;9904;52.246;20.898;2022-10-16T09:06:56;18.77;;;9.37;;
19519;SDS011;9904;52.246;20.898;2022-10-16T09:12:10;14.97;;;8.80;;
19519;SDS011;9904;52.246;20.898;2022-10-16T09:14:45;18.23;;;9.70;;
19519;SDS011;9904;52.246;20.898;2022-10-16T09:20:16;14.83;;;8.87;;
19519;SDS011;9904;52.246;20.898;2022-10-16T09:25:31;15.30;;;9.17;;
19519;SDS011;9904;52.246;20.898;2022-10-16T09:27:58;21.93;;;9.50;;
19519;SDS011;9904;52.246;20.898;2022-10-16T09:30:26;16.13;;;9.17;;
19519;SDS011;9904;52.246;20.898;2022-10-16T09:32:54;18.13;;;9.00;;
19519;SDS011;9904;52.246;20.898;2022-10-16T09:35:22;14.00;;;8.30;;
19519;SDS011;9904;52.246;20.898;2022-10-16T09:37:54;19.43;;;9.60;;
19519;SDS011;9904;52.246;20.898;2022-10-16T09:40:32;14.73;;;8.83;;
19519;SDS011;9904;52.246;20.898;2022-10-16T09:43:02;16.33;;;9.63;;
19519;SDS011;9904;52.246;20.898;2022-10-16T09:45:33;23.23;;;9.10;;
19519;SDS011;9904;52.246;20.898;2022-10-16T09:48:01;14.43;;;9.23;;
19519;SDS011;9904;52.246;20.898;2022-10-16T09:50:37;20.03;;;8.90;;
19519;SDS011;9904;52.246;20.898;2022-10-16T09:53:11;18.90;;;9.40;;
19519;SDS011;9904;52.246;20.898;2022-10-16T09:55:48;17.70;;;9.77;;
19519;SDS011;9904;52.246;20.898;2022-10-16T09:58:16;15.87;;;9.37;;
19519;SDS011;9904;52.246;20.898;2022-10-16T10:00:48;17.77;;;8.93;;
19519;SDS011;9904;52.246;20.898;2022-10-16T10:03:36;15.43;;;9.13;;
19519;SDS011;9904;52.246;20.898;2022-10-16T10:06:14;15.30;;;9.30;;
19519;SDS011;9904;52.246;20.898;2022-10-16T10:09:05;14.17;;;8.70;;
19519;SDS011;9904;52.246;20.898;2022-10-16T10:14:15;14.67;;;8.50;;
19519;SDS011;9904;52.246;20.898;2022-10-16T10:16:47;13.47;;;8.80;;
19519;SDS011;9904;52.246;20.898;2022-10-16T10:19:16;14.57;;;8.43;;
19519;SDS011;9904;52.246;20.898;2022-10-16T10:21:47;14.87;;;8.60;;
19519;SDS011;9904;52.246;20.898;2022-10-16T10:24:15;14.20;;;8.67;;
19519;SDS011;9904;52.246;20.898;2022-10-16T10:26:54;13.80;;;8.63;;
19519;SDS011;9904;52.246;20.898;2022-10-16T10:29:36;19.70;;;9.60;;
19519;SDS011;9904;52.246;20.898;2022-10-16T10:32:28;18.50;;;8.93;;
19519;SDS011;9904;52.246;20.898;2022-10-16T10:40:30;18.40;;;9.57;;
19519;SDS011;9904;52.246;20.898;2022-10-16T10:43:11;16.10;;;9.03;;
19519;SDS011;9904;52.246;20.898;2022-10-16T10:45:44;21.17;;;9.23;;
19519;SDS011;9904;52.246;20.898;2022-10-16T10:57:00;19.77;;;9.53;;
19519;SDS011;9904;52.246;20.898;2022-10-16T11:08:04;15.93;;;8.90;;
19519;SDS011;9904;52.246;20.898;2022-10-16T11:14:10;17.50;;;10.07;;
19519;SDS011;9904;52.246;20.898;2022-10-16T11:16:37;16.10;;;9.20;;
19519;SDS011;9904;52.246;20.898;2022-10-16T11:19:13;14.50;;;9.17;;
19519;SDS011;9904;52.246;20.898;2022-10-16T11:21:54;15.97;;;8.70;;
19519;SDS011;9904;52.246;20.898;2022-10-16T11:24:42;16.67;;;8.97;;
19519;SDS011;9904;52.246;20.898;2022-10-16T11:27:19;15.70;;;8.27;;
19519;SDS011;9904;52.246;20.898;2022-10-16T11:29:56;15.53;;;9.47;;
19519;SDS011;9904;52.246;20.898;2022-10-16T11:32:27;15.97;;;9.10;;
19519;SDS011;9904;52.246;20.898;2022-10-16T11:35:05;16.87;;;8.97;;
19519;SDS011;9904;52.246;20.898;2022-10-16T11:37:43;16.37;;;9.57;;
19519;SDS011;9904;52.246;20.898;2022-10-16T11:40:29;13.30;;;8.47;;
19519;SDS011;9904;52.246;20.898;2022-10-16T11:43:06;15.30;;;8.23;;
19519;SDS011;9904;52.246;20.898;2022-10-16T11:45:51;15.93;;;8.93;;
19519;SDS011;9904;52.246;20.898;2022-10-16T11:48:34;17.47;;;8.40;;
19519;SDS011;9904;52.246;20.898;2022-10-16T11:51:14;17.00;;;8.57;;
19519;SDS011;9904;52.246;20.898;2022-10-16T11:53:51;15.70;;;8.43;;
19519;SDS011;9904;52.246;20.898;2022-10-16T11:56:21;13.80;;;8.60;;
19519;SDS011;9904;52.246;20.898;2022-10-16T11:58:52;17.60;;;8.97;;
19519;SDS011;9904;52.246;20.898;2022-10-16T12:01:32;16.43;;;8.93;;
19519;SDS011;9904;52.246;20.898;2022-10-16T12:06:41;11.83;;;7.83;;
19519;SDS011;9904;52.246;20.898;2022-10-16T12:09:15;15.60;;;8.40;;
19519;SDS011;9904;52.246;20.898;2022-10-16T12:11:53;15.90;;;8.57;;
19519;SDS011;9904;52.246;20.898;2022-10-16T12:17:24;16.97;;;8.20;;
19519;SDS011;9904;52.246;20.898;2022-10-16T12:22:50;16.07;;;8.20;;
19519;SDS011;9904;52.246;20.898;2022-10-16T12:25:26;14.03;;;8.20;;
19519;SDS011;9904;52.246;20.898;2022-10-16T12:28:01;14.07;;;8.00;;
19519;SDS011;9904;52.246;20.898;2022-10-16T12:30:33;15.30;;;8.53;;
19519;SDS011;9904;52.246;20.898;2022-10-16T12:33:05;17.10;;;8.17;;
19519;SDS011;9904;52.246;20.898;2022-10-16T12:35:33;13.40;;;7.57;;
19519;SDS011;9904;52.246;20.898;2022-10-16T12:38:19;15.70;;;7.63;;
19519;SDS011;9904;52.246;20.898;2022-10-16T12:41:01;12.40;;;7.37;;
19519;SDS011;9904;52.246;20.898;2022-10-16T12:43:36;21.43;;;8.00;;
19519;SDS011;9904;52.246;20.898;2022-10-16T12:48:40;11.63;;;7.50;;
19519;SDS011;9904;52.246;20.898;2022-10-16T12:51:22;14.17;;;8.07;;
19519;SDS011;9904;52.246;20.898;2022-10-16T12:59:39;14.27;;;8.27;;
19519;SDS011;9904;52.246;20.898;2022-10-16T13:10:52;14.90;;;8.10;;
19519;SDS011;9904;52.246;20.898;2022-10-16T13:16:56;17.33;;;9.30;;
19519;SDS011;9904;52.246;20.898;2022-10-16T13:19:42;19.43;;;8.97;;
19519;SDS011;9904;52.246;20.898;2022-10-16T13:25:32;14.87;;;8.50;;
19519;SDS011;9904;52.246;20.898;2022-10-16T13:27:55;13.47;;;8.37;;
19519;SDS011;9904;52.246;20.898;2022-10-16T13:30:28;18.60;;;9.33;;
19519;SDS011;9904;52.246;20.898;2022-10-16T13:33:01;16.93;;;9.00;;
19519;SDS011;9904;52.246;20.898;2022-10-16T13:35:31;14.80;;;8.67;;
19519;SDS011;9904;52.246;20.898;2022-10-16T13:40:47;13.70;;;8.23;;
19519;SDS011;9904;52.246;20.898;2022-10-16T13:43:49;13.53;;;7.50;;
19519;SDS011;9904;52.246;20.898;2022-10-16T13:46:18;13.27;;;7.70;;
19519;SDS011;9904;52.246;20.898;2022-10-16T13:48:56;11.50;;;7.40;;
19519;SDS011;9904;52.246;20.898;2022-10-16T13:51:24;13.43;;;7.40;;
19519;SDS011;9904;52.246;20.898;2022-10-16T13:53:52;11.33;;;7.57;;
19519;SDS011;9904;52.246;20.898;2022-10-16T13:56:21;12.67;;;7.93;;
19519;SDS011;9904;52.246;20.898;2022-10-16T13:58:58;12.87;;;7.50;;
19519;SDS011;9904;52.246;20.898;2022-10-16T14:01:39;15.07;;;7.60;;
19519;SDS011;9904;52.246;20.898;2022-10-16T14:04:08;15.27;;;7.17;;
19519;SDS011;9904;52.246;20.898;2022-10-16T14:06:36;12.33;;;7.50;;
19519;SDS011;9904;52.246;20.898;2022-10-16T14:09:16;13.43;;;7.50;;
19519;SDS011;9904;52.246;20.898;2022-10-16T14:11:58;12.83;;;7.57;;
19519;SDS011;9904;52.246;20.898;2022-10-16T14:14:29;12.60;;;7.10;;
19519;SDS011;9904;52.246;20.898;2022-10-16T14:17:00;13.13;;;6.90;;
19519;SDS011;9904;52.246;20.898;2022-10-16T14:19:28;15.40;;;7.67;;
19519;SDS011;9904;52.246;20.898;2022-10-16T14:22:00;16.47;;;7.10;;
19519;SDS011;9904;52.246;20.898;2022-10-16T14:24:31;11.73;;;7.27;;
19519;SDS011;9904;52.246;20.898;2022-10-16T14:26:59;11.70;;;7.40;;
19519;SDS011;9904;52.246;20.898;2022-10-16T14:29:27;13.27;;;7.90;;
19519;SDS011;9904;52.246;20.898;2022-10-16T14:32:00;18.87;;;7.67;;
19519;SDS011;9904;52.246;20.898;2022-10-16T14:34:32;14.17;;;8.00;;
19519;SDS011;9904;52.246;20.898;2022-10-16T14:37:04;14.10;;;7.30;;
19519;SDS011;9904;52.246;20.898;2022-10-16T14:39:39;18.03;;;8.00;;
19519;SDS011;9904;52.246;20.898;2022-10-16T14:42:16;13.17;;;8.13;;
19519;SDS011;9904;52.246;20.898;2022-10-16T14:44:45;12.80;;;8.00;;
19519;SDS011;9904;52.246;20.898;2022-10-16T14:47:13;17.50;;;7.73;;
19519;SDS011;9904;52.246;20.898;2022-10-16T14:49:42;16.33;;;8.20;;
19519;SDS011;9904;52.246;20.898;2022-10-16T14:52:10;14.17;;;8.00;;
19519;SDS011;9904;52.246;20.898;2022-10-16T14:54:37;14.13;;;8.43;;
19519;SDS011;9904;52.246;20.898;2022-10-16T14:57:04;15.53;;;8.53;;
19519;SDS011;9904;52.246;20.898;2022-10-16T14:59:34;13.87;;;8.20;;
19519;SDS011;9904;52.246;20.898;2022-10-16T15:04:48;15.70;;;8.83;;
19519;SDS011;9904;52.246;20.898;2022-10-16T15:07:15;14.20;;;8.27;;
19519;SDS011;9904;52.246;20.898;2022-10-16T15:09:42;13.17;;;8.40;;
19519;SDS011;9904;52.246;20.898;2022-10-16T15:12:14;16.80;;;8.67;;
19519;SDS011;9904;52.246;20.898;2022-10-16T15:14:41;17.57;;;8.57;;
19519;SDS011;9904;52.246;20.898;2022-10-16T15:17:09;14.03;;;8.30;;
19519;SDS011;9904;52.246;20.898;2022-10-16T15:19:36;14.57;;;9.03;;
19519;SDS011;9904;52.246;20.898;2022-10-16T15:22:03;18.10;;;9.33;;
19519;SDS011;9904;52.246;20.898;2022-10-16T15:24:29;16.87;;;8.83;;
19519;SDS011;9904;52.246;20.898;2022-10-16T15:26:57;12.43;;;8.53;;
19519;SDS011;9904;52.246;20.898;2022-10-16T15:29:24;17.93;;;9.13;;
19519;SDS011;9904;52.246;20.898;2022-10-16T15:31:50;15.40;;;8.63;;
19519;SDS011;9904;52.246;20.898;2022-10-16T15:34:17;17.50;;;9.10;;
19519;SDS011;9904;52.246;20.898;2022-10-16T15:36:45;18.20;;;9.60;;
19519;SDS011;9904;52.246;20.898;2022-10-16T15:39:13;18.70;;;8.93;;
19519;SDS011;9904;52.246;20.898;2022-10-16T15:41:41;17.67;;;8.70;;
19519;SDS011;9904;52.246;20.898;2022-10-16T15:44:08;15.20;;;9.03;;
19519;SDS011;9904;52.246;20.898;2022-10-16T15:46:34;17.73;;;9.43;;
19519;SDS011;9904;52.246;20.898;2022-10-16T15:49:02;18.03;;;9.87;;
19519;SDS011;9904;52.246;20.898;2022-10-16T15:51:29;23.03;;;9.73;;
19519;SDS011;9904;52.246;20.898;2022-10-16T15:53:56;19.70;;;9.37;;
19519;SDS011;9904;52.246;20.898;2022-10-16T15:56:23;18.63;;;10.50;;
19519;SDS011;9904;52.246;20.898;2022-10-16T15:58:51;18.83;;;9.97;;
19519;SDS011;9904;52.246;20.898;2022-10-16T16:01:19;19.13;;;10.97;;
19519;SDS011;9904;52.246;20.898;2022-10-16T16:03:47;19.73;;;11.33;;
19519;SDS011;9904;52.246;20.898;2022-10-16T16:06:13;26.70;;;12.73;;
19519;SDS011;9904;52.246;20.898;2022-10-16T16:08:40;24.00;;;11.73;;
19519;SDS011;9904;52.246;20.898;2022-10-16T16:11:08;26.43;;;12.13;;
19519;SDS011;9904;52.246;20.898;2022-10-16T16:13:36;20.10;;;12.23;;
19519;SDS011;9904;52.246;20.898;2022-10-16T16:16:09;20.77;;;11.07;;
19519;SDS011;9904;52.246;20.898;2022-10-16T16:18:37;18.50;;;11.03;;
19519;SDS011;9904;52.246;20.898;2022-10-16T16:21:04;20.33;;;10.53;;
19519;SDS011;9904;52.246;20.898;2022-10-16T16:23:31;23.23;;;11.40;;